Terminal Aerodrome Forecast
Issued by NWS

Home | Current Version | Previous Version | Text Only | Print | Product List | Glossary On
Versions: 1 2 3 4 5 6 7 8 9 10 11 12 13 14 15 16 17 18 19 20 21 22 23 24 25 26 27 28 29 30 31 32 33 34 35 36 37 38 39
000
FTUS43 KDLH 020900 AAC
TAFHIB
TAF AMD
KHIB 020903Z 0209/0306 00000KT 1 1/2SM BR SCT002 SCT200
      TEMPO 0209/0210 1/4SM FG VV001
     FM021000 VRB02KT 3/4SM BR SCT002
      TEMPO 0210/0213 1/4SM FG VV001
     FM021300 24004KT P6SM SCT120
     FM021600 26010KT P6SM VCTS SCT040CB BKN100
     FM030000 22004KT P6SM SCT080=

USA.gov is the U.S. government's official web portal to all federal, state and local government web resources and services.